Time,TemperatureF,DewpointF,PressureIn,WindDirection,WindDirectionDegrees,WindSpeedMPH,WindSpeedGustMPH,Humidity,HourlyPrecipIn,Conditions,Clouds,dailyrainin,SoftwareType,DateUTC
2013-09-01 00:03:00,-999.0,-99.9,29.78,SW,224,5.0,10.0,-999,-99.99,,,-99.99,,2013-09-01 04:03:00,
2013-09-01 00:14:00,66.0,65.0,29.78,SW,224,5.0,10.0,98,0.00,,,0.35,,2013-09-01 04:14:00,
2013-09-01 00:25:00,66.0,65.0,29.78,SW,226,5.0,10.0,98,0.00,,,0.35,,2013-09-01 04:25:00,
2013-09-01 00:43:00,66.0,65.0,29.78,WSW,237,8.0,15.0,97,0.00,,,0.35,,2013-09-01 04:43:00,
2013-09-01 00:54:00,66.0,65.0,29.77,SW,235,8.0,12.0,98,0.00,,,0.35,,2013-09-01 04:54:00,
2013-09-01 01:13:00,66.0,65.0,29.77,WSW,239,6.0,11.0,98,0.00,,,0.35,,2013-09-01 05:13:00,
2013-09-01 01:23:00,65.0,64.0,29.77,SW,233,6.0,12.0,98,0.00,,,0.35,,2013-09-01 05:23:00,
2013-09-01 01:43:00,65.0,64.0,29.76,WSW,239,6.0,12.0,98,0.00,,,0.35,,2013-09-01 05:43:00,
2013-09-01 01:52:00,65.0,64.0,29.75,SW,227,7.0,17.0,98,0.01,,,0.36,,2013-09-01 05:52:00,
2013-09-01 02:13:00,64.0,63.0,29.75,SW,235,7.0,15.0,98,0.01,,,0.36,,2013-09-01 06:13:00,
2013-09-01 02:22:00,64.0,63.0,29.75,WSW,241,4.0,13.0,98,0.02,,,0.37,,2013-09-01 06:22:00,
2013-09-01 02:42:00,64.0,63.0,29.75,SW,229,5.0,11.0,98,0.04,,,0.39,,2013-09-01 06:42:00,
2013-09-01 02:52:00,63.0,62.0,29.75,WSW,258,3.0,7.0,98,0.14,,,0.50,,2013-09-01 06:52:00,
2013-09-01 03:13:00,63.0,62.0,29.75,WSW,242,3.0,7.0,98,0.14,,,0.50,,2013-09-01 07:13:00,
2013-09-01 03:22:00,63.0,63.0,29.75,SW,233,3.0,8.0,99,0.13,,,0.50,,2013-09-01 07:22:00,
2013-09-01 03:42:00,63.0,63.0,29.75,WSW,237,5.0,9.0,99,0.11,,,0.50,,2013-09-01 07:42:00,
2013-09-01 03:52:00,63.0,63.0,29.74,WSW,239,5.0,9.0,99,0.00,,,0.31,,2013-09-01 07:52:00,
2013-09-01 04:11:00,63.0,63.0,29.74,SW,229,6.0,11.0,99,0.00,,,0.31,,2013-09-01 08:11:00,
2013-09-01 04:22:00,63.0,63.0,29.74,SW,236,6.0,10.0,99,0.00,,,0.31,,2013-09-01 08:22:00,
2013-09-01 04:43:00,63.0,63.0,29.74,WSW,247,6.0,11.0,99,0.00,,,0.31,,2013-09-01 08:43:00,
2013-09-01 04:52:00,63.0,63.0,29.74,SW,219,5.0,12.0,99,0.00,,,0.21,,2013-09-01 08:52:00,
2013-09-01 05:11:00,63.0,63.0,29.75,SW,227,6.0,10.0,99,0.00,,,0.21,,2013-09-01 09:11:00,
2013-09-01 05:22:00,64.0,64.0,29.75,SW,223,7.0,13.0,99,0.00,,,0.21,,2013-09-01 09:22:00,
2013-09-01 05:53:00,64.0,64.0,29.75,SW,229,6.0,13.0,99,0.00,,,0.15,,2013-09-01 09:53:00,
2013-09-01 06:13:00,65.0,65.0,29.75,SW,223,7.0,11.0,99,0.00,,,0.15,,2013-09-01 10:13:00,
2013-09-01 06:23:00,64.0,64.0,29.76,SW,230,8.0,12.0,99,0.00,,,0.15,,2013-09-01 10:23:00,
2013-09-01 06:42:00,64.0,64.0,29.76,SW,231,5.0,13.0,99,0.00,,,0.15,,2013-09-01 10:42:00,
2013-09-01 06:53:00,64.0,64.0,29.76,SW,225,4.0,8.0,99,0.00,,,0.15,,2013-09-01 10:53:00,
2013-09-01 07:12:00,64.0,64.0,29.77,WSW,241,6.0,12.0,99,0.00,,,0.15,,2013-09-01 11:12:00,
2013-09-01 07:22:00,64.0,64.0,29.78,WSW,239,3.0,8.0,99,0.00,,,0.15,,2013-09-01 11:22:00,
2013-09-01 07:52:00,64.0,64.0,29.78,WSW,247,3.0,8.0,99,0.00,,,0.15,,2013-09-01 11:52:00,
2013-09-01 08:12:00,63.0,63.0,29.79,WSW,247,3.0,7.0,99,0.00,,,0.15,,2013-09-01 12:12:00,
2013-09-01 08:22:00,63.0,63.0,29.79,WSW,247,2.0,6.0,99,0.00,,,0.15,,2013-09-01 12:22:00,
2013-09-01 08:42:00,63.0,63.0,29.79,WSW,247,2.0,4.0,99,0.00,,,0.15,,2013-09-01 12:42:00,
2013-09-01 08:52:00,64.0,64.0,29.79,WSW,247,0.0,4.0,99,0.00,,,0.15,,2013-09-01 12:52:00,
2013-09-01 09:11:00,65.0,65.0,29.79,WSW,247,0.0,3.0,99,0.00,,,0.15,,2013-09-01 13:11:00,
2013-09-01 09:21:00,67.0,67.0,29.79,WSW,247,0.0,0.0,99,0.00,,,0.15,,2013-09-01 13:21:00,
2013-09-01 09:52:00,65.0,65.0,29.80,WSW,247,2.0,6.0,99,0.01,,,0.16,,2013-09-01 13:52:00,
2013-09-01 10:11:00,65.0,65.0,29.81,WSW,247,2.0,5.0,99,0.01,,,0.16,,2013-09-01 14:11:00,
2013-09-01 10:22:00,64.0,64.0,29.81,WSW,247,1.0,5.0,99,0.01,,,0.16,,2013-09-01 14:22:00,
2013-09-01 10:42:00,65.0,65.0,29.81,WSW,247,1.0,4.0,99,0.00,,,0.16,,2013-09-01 14:42:00,
2013-09-01 10:52:00,68.0,68.0,29.81,WSW,247,0.0,1.0,99,0.00,,,0.16,,2013-09-01 14:52:00,
2013-09-01 11:11:00,68.0,68.0,29.81,WSW,247,3.0,5.0,99,0.00,,,0.16,,2013-09-01 15:11:00,
2013-09-01 11:23:00,68.0,68.0,29.81,WSW,247,0.0,2.0,99,0.00,,,0.16,,2013-09-01 15:23:00,
2013-09-01 11:45:00,69.0,69.0,29.82,WSW,247,0.0,2.0,99,0.00,,,0.16,,2013-09-01 15:45:00,
2013-09-01 11:55:00,70.0,70.0,29.82,WSW,247,0.0,3.0,99,0.00,,,0.16,,2013-09-01 15:55:00,
2013-09-01 12:14:00,72.0,71.0,29.82,WSW,247,2.0,3.0,96,0.00,,,0.16,,2013-09-01 16:14:00,
2013-09-01 12:24:00,71.0,69.0,29.82,WSW,247,0.0,2.0,95,0.00,,,0.16,,2013-09-01 16:24:00,
2013-09-01 12:43:00,71.0,69.0,29.83,WSW,247,0.0,2.0,95,0.00,,,0.16,,2013-09-01 16:43:00,
2013-09-01 12:53:00,74.0,72.0,29.83,WSW,247,0.0,1.0,92,0.00,,,0.16,,2013-09-01 16:53:00,
2013-09-01 13:12:00,73.0,69.0,29.83,WSW,247,1.0,3.0,88,0.00,,,0.16,,2013-09-01 17:12:00,
2013-09-01 13:23:00,73.0,69.0,29.83,WSW,247,2.0,5.0,88,0.00,,,0.16,,2013-09-01 17:23:00,
2013-09-01 13:42:00,72.0,69.0,29.84,WSW,247,2.0,6.0,91,0.00,,,0.16,,2013-09-01 17:42:00,
2013-09-01 13:52:00,69.0,66.0,29.84,West,268,3.0,7.0,91,0.00,,,0.16,,2013-09-01 17:52:00,
2013-09-01 14:13:00,69.0,67.0,29.85,WSW,237,3.0,7.0,94,0.00,,,0.16,,2013-09-01 18:13:00,
2013-09-01 14:22:00,70.0,68.0,29.84,WSW,237,2.0,6.0,94,0.00,,,0.16,,2013-09-01 18:22:00,
2013-09-01 14:42:00,72.0,70.0,29.84,WSW,245,2.0,6.0,93,0.00,,,0.16,,2013-09-01 18:42:00,
2013-09-01 14:52:00,73.0,70.0,29.84,West,277,4.0,7.0,90,0.00,,,0.16,,2013-09-01 18:52:00,
2013-09-01 15:12:00,73.0,70.0,29.83,West,265,1.0,6.0,91,0.00,,,0.16,,2013-09-01 19:12:00,
2013-09-01 15:22:00,74.0,71.0,29.83,West,271,2.0,6.0,89,0.00,,,0.16,,2013-09-01 19:22:00,
2013-09-01 15:52:00,74.0,69.0,29.84,West,269,3.0,9.0,85,0.00,,,0.16,,2013-09-01 19:52:00,
2013-09-01 16:12:00,76.0,71.0,29.84,West,269,2.0,6.0,85,0.00,,,0.16,,2013-09-01 20:12:00,
2013-09-01 16:22:00,76.0,70.0,29.84,West,269,2.0,5.0,83,0.00,,,0.16,,2013-09-01 20:22:00,
2013-09-01 16:42:00,76.0,71.0,29.85,West,269,2.0,5.0,84,0.00,,,0.16,,2013-09-01 20:42:00,
2013-09-01 16:52:00,76.0,70.0,29.85,West,270,3.0,7.0,83,0.00,,,0.16,,2013-09-01 20:52:00,
2013-09-01 17:22:00,75.0,71.0,29.85,West,270,1.0,2.0,86,0.00,,,0.16,,2013-09-01 21:22:00,
2013-09-01 17:55:00,75.0,69.0,29.85,West,270,0.0,4.0,83,0.00,,,0.16,,2013-09-01 21:55:00,
2013-09-01 18:15:00,75.0,69.0,29.85,West,270,0.0,3.0,83,0.00,,,0.16,,2013-09-01 22:15:00,
2013-09-01 18:24:00,74.0,69.0,29.86,West,270,0.0,3.0,84,0.00,,,0.16,,2013-09-01 22:24:00,
2013-09-01 18:53:00,74.0,70.0,29.86,West,270,1.0,4.0,86,0.00,,,0.16,,2013-09-01 22:53:00,
2013-09-01 19:12:00,73.0,69.0,29.86,West,270,0.0,5.0,88,0.00,,,0.16,,2013-09-01 23:12:00,
2013-09-01 19:23:00,72.0,69.0,29.87,West,270,1.0,4.0,89,0.00,,,0.16,,2013-09-01 23:23:00,
2013-09-01 19:42:00,69.0,66.0,29.88,West,270,2.0,4.0,91,0.00,,,0.16,,2013-09-01 23:42:00,
2013-09-01 19:53:00,67.0,65.0,29.88,West,270,0.0,3.0,93,0.00,,,0.16,,2013-09-01 23:53:00,
2013-09-01 20:11:00,66.0,64.0,29.89,West,270,0.0,3.0,93,0.00,,,0.16,,2013-09-02 00:11:00,
2013-09-01 20:22:00,66.0,64.0,29.90,West,270,0.0,1.0,94,0.00,,,0.16,,2013-09-02 00:22:00,
2013-09-01 20:42:00,65.0,64.0,29.89,West,270,0.0,1.0,95,0.00,,,0.16,,2013-09-02 00:42:00,
2013-09-01 20:52:00,64.0,63.0,29.90,West,270,0.0,5.0,96,0.00,,,0.16,,2013-09-02 00:52:00,
2013-09-01 21:12:00,64.0,63.0,29.90,West,270,0.0,1.0,96,0.00,,,0.16,,2013-09-02 01:12:00,
2013-09-01 21:22:00,63.0,62.0,29.90,West,270,1.0,4.0,96,0.00,,,0.16,,2013-09-02 01:22:00,
2013-09-01 21:42:00,63.0,62.0,29.90,West,270,0.0,4.0,96,0.00,,,0.16,,2013-09-02 01:42:00,
2013-09-01 21:52:00,63.0,62.0,29.90,West,270,0.0,1.0,97,0.00,,,0.16,,2013-09-02 01:52:00,
2013-09-01 22:12:00,62.0,61.0,29.89,West,270,0.0,3.0,96,0.00,,,0.16,,2013-09-02 02:12:00,
2013-09-01 22:22:00,62.0,61.0,29.90,West,270,0.0,0.0,97,0.00,,,0.16,,2013-09-02 02:22:00,
2013-09-01 22:42:00,63.0,62.0,29.90,West,270,0.0,2.0,97,0.00,,,0.16,,2013-09-02 02:42:00,
2013-09-01 22:52:00,63.0,62.0,29.90,West,270,2.0,3.0,97,0.00,,,0.16,,2013-09-02 02:52:00,
2013-09-01 23:11:00,63.0,62.0,29.89,West,270,0.0,1.0,97,0.00,,,0.16,,2013-09-02 03:11:00,
2013-09-01 23:22:00,63.0,62.0,29.89,West,270,0.0,4.0,97,0.00,,,0.16,,2013-09-02 03:22:00,
2013-09-01 23:44:00,62.0,61.0,29.91,NNE,12,3.0,8.0,97,0.00,,,0.16,,2013-09-02 03:44:00,
2013-09-01 23:56:00,62.0,61.0,29.90,SE,131,3.0,7.0,98,0.00,,,0.16,,2013-09-02 03:56:00,